Time;durP1;ratioP1;P1;durP2;ratioP2;P2;SDS_P1;SDS_P2;PMS_P1;PMS_P2;Temp;Humidity;BMP_temperature;BMP_pressure;BME280_temperature;BME280_humidity;BME280_pressure;Samples;Min_cycle;Max_cycle;Signal;HPM_P1;HPM_P2
2023/06/27 00:00:14;;;;;;;12.63;6.93;;;22.40;98.60;;;;;;5011351;28;20100;-80
2023/06/27 00:03:24;;;;;;;11.38;6.30;;;22.10;99.90;;;;;;5011647;28;20049;-80
2023/06/27 00:06:28;;;;;;;9.98;6.18;;;22.00;99.90;;;;;;5011596;28;20048;-81
2023/06/27 00:09:32;;;;;;;15.55;6.97;;;21.90;99.90;;;;;;5011026;28;20033;-81
2023/06/27 00:12:36;;;;;;;14.70;6.63;;;21.80;99.90;;;;;;5011385;28;20068;-80
2023/06/27 00:15:41;;;;;;;8.02;6.30;;;21.60;99.90;;;;;;5011732;28;20045;-80
2023/06/27 00:18:48;;;;;;;8.30;6.68;;;21.60;99.90;;;;;;5010673;28;20400;-80
2023/06/27 00:21:52;;;;;;;11.48;6.85;;;21.50;99.90;;;;;;5011187;28;20049;-80
2023/06/27 00:24:56;;;;;;;19.92;8.13;;;21.50;99.90;;;;;;5010747;28;20456;-80
2023/06/27 00:28:01;;;;;;;11.52;7.32;;;21.50;99.90;;;;;;5011068;28;20057;-80
2023/06/27 00:31:06;;;;;;;10.77;6.38;;;21.50;99.90;;;;;;4999328;28;20053;-80
2023/06/27 00:34:11;;;;;;;13.65;7.65;;;21.40;99.90;;;;;;5010511;28;20056;-81
2023/06/27 00:37:16;;;;;;;9.93;6.32;;;21.40;99.90;;;;;;5010929;28;20057;-80
2023/06/27 00:40:20;;;;;;;8.45;5.70;;;21.40;99.90;;;;;;5010644;28;20041;-80
2023/06/27 00:43:24;;;;;;;12.13;7.45;;;21.30;99.90;;;;;;5009522;28;20033;-80
2023/06/27 00:46:36;;;;;;;8.88;6.68;;;21.30;99.90;;;;;;5010335;28;20037;-80
2023/06/27 00:49:41;;;;;;;9.77;6.70;;;21.20;99.90;;;;;;5010207;28;20041;-80
2023/06/27 00:52:46;;;;;;;10.27;6.90;;;21.20;99.90;;;;;;5011017;28;20049;-80
2023/06/27 00:55:50;;;;;;;10.65;6.90;;;21.00;99.90;;;;;;5010822;28;20041;-80
2023/06/27 00:58:57;;;;;;;10.50;6.88;;;20.90;99.90;;;;;;5009760;28;20092;-80
2023/06/27 01:02:01;;;;;;;10.45;6.70;;;20.90;99.90;;;;;;5010713;28;20480;-80
2023/06/27 01:05:09;;;;;;;10.25;6.22;;;20.90;99.90;;;;;;5010061;28;20037;-80
2023/06/27 01:08:28;;;;;;;10.25;6.25;;;20.90;99.90;;;;;;5009714;28;20049;-80
2023/06/27 01:11:44;;;;;;;11.13;6.93;;;20.90;99.90;;;;;;5009570;28;20044;-81
2023/06/27 01:14:52;;;;;;;12.95;7.30;;;20.80;99.90;;;;;;5010955;28;20048;-80
2023/06/27 01:17:58;;;;;;;11.68;6.80;;;20.80;99.90;;;;;;5009630;28;20392;-80
2023/06/27 01:21:08;;;;;;;9.57;6.85;;;20.70;99.90;;;;;;4998733;28;20404;-80
2023/06/27 01:24:12;;;;;;;11.63;8.32;;;20.60;99.90;;;;;;5010415;28;20041;-80
2023/06/27 01:27:19;;;;;;;15.75;7.60;;;20.50;99.90;;;;;;5010472;28;20056;-80
2023/06/27 01:30:23;;;;;;;14.23;8.20;;;20.50;99.90;;;;;;5009791;28;20493;-80
2023/06/27 01:33:41;;;;;;;11.45;7.75;;;20.50;99.90;;;;;;5010502;28;20053;-80
2023/06/27 01:37:09;;;;;;;11.65;7.57;;;20.40;99.90;;;;;;5010646;28;20053;-80
2023/06/27 01:40:17;;;;;;;10.20;7.22;;;20.40;99.90;;;;;;4998752;28;20049;-80
2023/06/27 01:43:22;;;;;;;11.63;8.02;;;20.30;99.90;;;;;;5010381;28;20049;-80
2023/06/27 01:46:28;;;;;;;11.13;8.10;;;20.40;99.90;;;;;;4998518;28;20045;-80
2023/06/27 01:49:32;;;;;;;17.85;8.40;;;20.30;99.90;;;;;;5010588;28;20099;-80
2023/06/27 01:52:37;;;;;;;10.85;7.40;;;20.30;99.90;;;;;;5009716;28;20481;-80
2023/06/27 01:55:45;;;;;;;15.50;7.82;;;20.20;99.90;;;;;;5012680;28;20499;-80
2023/06/27 01:58:50;;;;;;;11.48;7.75;;;20.20;99.90;;;;;;5013152;28;20049;-81
2023/06/27 02:01:53;;;;;;;10.40;8.13;;;20.20;99.90;;;;;;5001734;28;20396;-80
2023/06/27 02:04:57;;;;;;;11.95;8.55;;;20.20;99.90;;;;;;5014257;28;20056;-80
2023/06/27 02:08:01;;;;;;;12.90;8.15;;;20.10;99.90;;;;;;5014432;28;20049;-80
2023/06/27 02:11:07;;;;;;;12.70;8.23;;;20.10;99.90;;;;;;5013644;28;20052;-80
2023/06/27 02:14:11;;;;;;;14.02;8.82;;;20.10;99.90;;;;;;5013285;28;20121;-80
2023/06/27 02:17:15;;;;;;;12.05;8.35;;;20.10;99.90;;;;;;5012736;28;20049;-81
2023/06/27 02:20:19;;;;;;;13.18;8.77;;;20.10;99.90;;;;;;5013148;28;20053;-80
2023/06/27 02:23:25;;;;;;;13.63;8.32;;;20.20;99.90;;;;;;5013110;28;20053;-80
2023/06/27 02:26:29;;;;;;;12.15;8.82;;;20.10;99.90;;;;;;5013657;28;20037;-80
2023/06/27 02:29:33;;;;;;;17.00;8.77;;;20.00;99.90;;;;;;5012566;28;20057;-80
2023/06/27 02:32:37;;;;;;;12.90;8.95;;;20.00;99.90;;;;;;5012612;28;20048;-80
2023/06/27 02:35:42;;;;;;;13.60;9.27;;;20.00;99.90;;;;;;5013418;28;20057;-80
2023/06/27 02:38:46;;;;;;;15.35;8.30;;;20.00;99.90;;;;;;5012858;28;20527;-80
2023/06/27 02:41:50;;;;;;;11.52;8.43;;;19.90;99.90;;;;;;5013505;28;20052;-80
2023/06/27 02:44:54;;;;;;;11.45;7.95;;;19.90;99.90;;;;;;5013205;28;20049;-80
2023/06/27 02:47:59;;;;;;;13.77;7.43;;;19.90;99.90;;;;;;5012198;28;20053;-80
2023/06/27 02:51:03;;;;;;;11.40;7.65;;;19.80;99.90;;;;;;5013446;28;20045;-80
2023/06/27 02:54:07;;;;;;;10.02;6.68;;;19.80;99.90;;;;;;5012345;28;20052;-80
2023/06/27 02:57:11;;;;;;;9.85;7.13;;;19.80;99.90;;;;;;5012286;28;20484;-80
2023/06/27 03:00:18;;;;;;;9.20;6.45;;;19.70;99.90;;;;;;5012302;28;20065;-80
2023/06/27 03:03:22;;;;;;;12.80;7.38;;;19.80;99.90;;;;;;5012634;28;20057;-80
2023/06/27 03:06:27;;;;;;;10.32;7.03;;;19.80;99.90;;;;;;5000359;28;20508;-80
2023/06/27 03:09:32;;;;;;;10.13;7.43;;;19.70;99.90;;;;;;5000847;28;20053;-80
2023/06/27 03:12:37;;;;;;;9.00;6.85;;;19.60;99.90;;;;;;5011831;28;20397;-80
2023/06/27 03:15:41;;;;;;;11.13;7.38;;;19.70;99.90;;;;;;5012917;28;20048;-80
2023/06/27 03:18:46;;;;;;;11.85;7.88;;;19.60;99.90;;;;;;5011489;28;20049;-80
2023/06/27 03:21:50;;;;;;;12.40;7.75;;;19.60;99.90;;;;;;5011502;28;20085;-80
2023/06/27 03:24:54;;;;;;;13.48;8.82;;;19.50;99.90;;;;;;5011638;28;20041;-80
2023/06/27 03:27:59;;;;;;;10.45;8.20;;;19.50;99.90;;;;;;5011447;28;20420;-80
2023/06/27 03:31:03;;;;;;;19.75;8.15;;;19.50;99.90;;;;;;5011365;28;20071;-80
2023/06/27 03:34:07;;;;;;;15.38;9.05;;;19.50;99.90;;;;;;5012394;28;20052;-80
2023/06/27 03:37:11;;;;;;;11.60;8.88;;;19.60;99.90;;;;;;5000227;28;20049;-80
2023/06/27 03:40:15;;;;;;;15.20;9.48;;;19.60;99.90;;;;;;5011378;28;20049;-80
2023/06/27 03:43:20;;;;;;;16.38;9.60;;;19.50;99.90;;;;;;5010943;28;20053;-80
2023/06/27 03:46:25;;;;;;;13.35;8.35;;;19.40;99.90;;;;;;5010747;28;20048;-80
2023/06/27 03:49:29;;;;;;;17.95;9.30;;;19.40;99.90;;;;;;5011754;28;20041;-80
2023/06/27 03:52:33;;;;;;;13.68;8.60;;;19.40;99.90;;;;;;5011063;28;20401;-81
2023/06/27 03:55:40;;;;;;;16.10;8.88;;;19.40;99.90;;;;;;5011009;28;20049;-80
2023/06/27 03:58:45;;;;;;;16.63;8.27;;;19.40;99.90;;;;;;5010905;28;20057;-81
2023/06/27 04:01:49;;;;;;;16.00;7.75;;;19.40;99.90;;;;;;5010890;28;20053;-81
2023/06/27 04:04:54;;;;;;;12.13;8.43;;;19.50;99.90;;;;;;5000036;28;20048;-80
2023/06/27 04:07:58;;;;;;;17.52;8.95;;;19.50;99.90;;;;;;5012090;28;20057;-81
2023/06/27 04:11:03;;;;;;;20.58;9.23;;;19.50;99.90;;;;;;5010925;28;20419;-80
2023/06/27 04:14:07;;;;;;;11.82;8.30;;;19.50;99.90;;;;;;5011167;28;20053;-80
2023/06/27 04:17:10;;;;;;;11.85;7.85;;;19.50;99.90;;;;;;5009960;28;20369;-80
2023/06/27 04:20:14;;;;;;;13.07;8.32;;;19.50;99.90;;;;;;5010768;28;20499;-80
2023/06/27 04:23:18;;;;;;;15.00;8.90;;;19.60;99.90;;;;;;5010920;28;20377;-80
2023/06/27 04:26:25;;;;;;;11.90;8.45;;;19.70;99.90;;;;;;5011474;28;20053;-80
2023/06/27 04:29:29;;;;;;;14.60;7.93;;;19.70;99.90;;;;;;5011664;28;20049;-80
2023/06/27 04:32:34;;;;;;;14.82;8.95;;;20.50;99.90;;;;;;5011155;28;20056;-81
2023/06/27 04:35:38;;;;;;;13.85;8.40;;;21.80;99.90;;;;;;5012016;28;20052;-81
2023/06/27 04:38:43;;;;;;;15.68;8.43;;;23.30;99.90;;;;;;5012514;28;20399;-81
2023/06/27 04:41:47;;;;;;;14.98;8.70;;;24.60;99.90;;;;;;5011452;28;20045;-81
2023/06/27 04:44:51;;;;;;;14.73;7.15;;;25.50;99.90;;;;;;5000418;28;20053;-81
2023/06/27 04:47:55;;;;;;;14.60;8.25;;;26.30;99.90;;;;;;4999621;28;20045;-81
2023/06/27 04:50:59;;;;;;;13.27;7.85;;;26.90;99.90;;;;;;5012402;28;20052;-81
2023/06/27 04:54:03;;;;;;;14.50;8.35;;;27.00;99.90;;;;;;5011626;28;20044;-81
2023/06/27 04:57:07;;;;;;;16.25;7.75;;;27.10;99.90;;;;;;5012558;28;20053;-81
2023/06/27 05:00:12;;;;;;;11.00;7.68;;;27.90;99.90;;;;;;5012149;28;20053;-81
2023/06/27 05:03:17;;;;;;;12.07;8.05;;;28.60;99.90;;;;;;4999760;28;20045;-81
2023/06/27 05:06:21;;;;;;;12.80;7.05;;;29.20;99.90;;;;;;5012289;28;20033;-81
2023/06/27 05:09:25;;;;;;;13.82;7.57;;;29.60;99.90;;;;;;5012034;28;20057;-81
2023/06/27 05:12:29;;;;;;;21.77;10.88;;;30.00;99.90;;;;;;5011873;28;20048;-81
2023/06/27 05:15:33;;;;;;;45.25;15.57;;;30.30;99.90;;;;;;5012162;28;20056;-81
2023/06/27 05:18:37;;;;;;;15.75;8.60;;;30.70;99.90;;;;;;5011986;28;20492;-81
2023/06/27 05:21:41;;;;;;;10.88;7.72;;;30.70;99.90;;;;;;5012007;28;20053;-81
2023/06/27 05:24:45;;;;;;;12.75;7.55;;;30.70;99.90;;;;;;5011822;28;20045;-81
2023/06/27 05:27:48;;;;;;;10.18;7.30;;;31.00;99.90;;;;;;5011950;28;20049;-81
2023/06/27 05:30:52;;;;;;;13.38;7.43;;;30.80;99.90;;;;;;5015959;28;20044;-82
2023/06/27 05:33:56;;;;;;;13.50;6.93;;;31.10;99.90;;;;;;5015936;28;20041;-81
2023/06/27 05:37:00;;;;;;;14.05;7.88;;;31.40;99.90;;;;;;5019805;28;20042;-81
2023/06/27 05:40:05;;;;;;;16.05;7.68;;;31.50;99.80;;;;;;5033875;28;20048;-82
2023/06/27 05:43:09;;;;;;;11.48;7.30;;;31.50;99.40;;;;;;5027615;28;20495;-82
2023/06/27 05:46:13;;;;;;;14.15;6.90;;;31.00;99.80;;;;;;5025448;28;20060;-81
2023/06/27 05:49:17;;;;;;;12.10;7.15;;;30.40;99.90;;;;;;5033903;28;20044;-81
2023/06/27 05:52:21;;;;;;;10.70;7.00;;;30.60;99.90;;;;;;5030010;28;20400;-81
2023/06/27 05:55:25;;;;;;;12.27;7.35;;;29.90;99.90;;;;;;5034283;28;20502;-82
2023/06/27 05:58:29;;;;;;;10.77;6.47;;;29.90;99.90;;;;;;5028354;28;20056;-80
2023/06/27 06:01:35;;;;;;;11.77;6.95;;;30.50;99.90;;;;;;5033108;28;20066;-80
2023/06/27 06:04:39;;;;;;;13.65;6.60;;;30.60;99.90;;;;;;5034686;28;20044;-80
2023/06/27 06:07:44;;;;;;;16.77;8.13;;;31.00;99.00;;;;;;5031359;28;20041;-80
2023/06/27 06:10:50;;;;;;;20.80;9.23;;;31.50;98.80;;;;;;5026118;28;20048;-80
2023/06/27 06:13:54;;;;;;;9.77;6.65;;;31.70;98.40;;;;;;5034645;28;20056;-80
2023/06/27 06:16:58;;;;;;;11.85;6.22;;;32.10;98.10;;;;;;5022251;28;20052;-80
2023/06/27 06:20:09;;;;;;;7.95;6.13;;;32.50;97.50;;;;;;5034296;28;20049;-80
2023/06/27 06:23:13;;;;;;;11.15;6.18;;;33.00;96.80;;;;;;5021203;28;20586;-80
2023/06/27 06:26:17;;;;;;;10.98;5.93;;;33.50;96.60;;;;;;5031570;28;20036;-80
2023/06/27 06:29:20;;;;;;;12.30;5.88;;;33.60;95.90;;;;;;5030005;28;20044;-81
2023/06/27 06:32:24;;;;;;;9.05;6.05;;;33.60;95.90;;;;;;5033079;28;20057;-80
2023/06/27 06:35:29;;;;;;;14.68;6.57;;;33.90;95.50;;;;;;5030833;28;20380;-81
2023/06/27 06:38:34;;;;;;;9.05;5.68;;;32.40;95.50;;;;;;5030953;28;20052;-81
2023/06/27 06:41:37;;;;;;;11.02;6.85;;;32.40;96.10;;;;;;5021276;28;20048;-81
2023/06/27 06:44:48;;;;;;;13.43;8.17;;;31.20;97.00;;;;;;5019234;28;20048;-81
2023/06/27 06:47:53;;;;;;;17.00;8.93;;;30.20;97.90;;;;;;5020825;28;20036;-80
2023/06/27 06:50:58;;;;;;;13.15;9.40;;;28.60;99.80;;;;;;5022533;28;20048;-80
2023/06/27 06:54:02;;;;;;;18.10;9.80;;;28.70;99.90;;;;;;5033243;28;20634;-81
2023/06/27 06:57:06;;;;;;;19.13;9.82;;;29.10;99.90;;;;;;5030132;28;20053;-80
2023/06/27 07:00:13;;;;;;;15.20;10.18;;;30.20;99.50;;;;;;5030433;28;20487;-80
2023/06/27 07:03:17;;;;;;;13.13;8.90;;;31.40;98.10;;;;;;5029709;28;20040;-80
2023/06/27 07:06:21;;;;;;;13.80;9.07;;;32.30;97.20;;;;;;5021432;28;20041;-80
2023/06/27 07:09:28;;;;;;;11.40;7.45;;;33.00;96.50;;;;;;5027625;28;20372;-81
2023/06/27 07:12:32;;;;;;;8.40;6.80;;;33.10;95.70;;;;;;5022944;28;20060;-80
2023/06/27 07:15:36;;;;;;;9.60;7.47;;;33.90;95.30;;;;;;5026920;28;20052;-81
2023/06/27 07:18:40;;;;;;;8.50;7.20;;;34.20;94.10;;;;;;5028148;28;20052;-82
2023/06/27 07:21:45;;;;;;;12.50;7.30;;;34.00;94.60;;;;;;5027383;28;20048;-82
2023/06/27 07:24:49;;;;;;;14.43;7.15;;;34.10;94.90;;;;;;5033750;28;20068;-83
2023/06/27 07:27:53;;;;;;;9.23;6.25;;;35.10;93.30;;;;;;5031926;28;20394;-86
2023/06/27 07:30:57;;;;;;;9.02;6.97;;;35.90;92.40;;;;;;5015053;28;20507;-84
2023/06/27 07:34:01;;;;;;;11.90;6.35;;;35.00;92.30;;;;;;5033225;28;20044;-84
2023/06/27 07:37:06;;;;;;;10.07;6.03;;;35.20;91.70;;;;;;5023912;28;20052;-83
2023/06/27 07:40:11;;;;;;;8.10;6.43;;;35.90;92.00;;;;;;5029763;28;20056;-83
2023/06/27 07:43:14;;;;;;;11.35;6.40;;;35.60;91.60;;;;;;5025167;28;20037;-82
2023/06/27 07:46:18;;;;;;;7.25;6.18;;;35.80;91.40;;;;;;5029190;28;20052;-82
2023/06/27 07:49:22;;;;;;;9.38;5.70;;;35.80;91.10;;;;;;5031381;28;20056;-83
2023/06/27 07:52:26;;;;;;;10.88;7.00;;;36.40;91.10;;;;;;5030500;28;20044;-82
2023/06/27 07:55:30;;;;;;;7.53;5.82;;;37.40;90.30;;;;;;5031139;28;20060;-82
2023/06/27 07:58:34;;;;;;;11.27;6.15;;;37.80;89.60;;;;;;5028275;28;20045;-82
2023/06/27 08:01:40;;;;;;;8.82;6.28;;;37.60;88.60;;;;;;5028510;28;20049;-82
2023/06/27 08:04:48;;;;;;;9.77;7.95;;;37.30;89.10;;;;;;5029819;28;20049;-82
2023/06/27 08:07:52;;;;;;;12.75;8.75;;;37.20;89.30;;;;;;5036040;28;20056;-82
2023/06/27 08:10:56;;;;;;;9.75;8.75;;;35.00;90.80;;;;;;5029064;28;20037;-81
2023/06/27 08:14:01;;;;;;;15.18;7.55;;;36.30;90.70;;;;;;5026200;28;20040;-82
2023/06/27 08:17:05;;;;;;;8.63;6.43;;;36.30;90.70;;;;;;5031563;28;20052;-81
2023/06/27 08:20:10;;;;;;;6.45;5.75;;;36.90;90.20;;;;;;5027054;28;20491;-83
2023/06/27 08:23:14;;;;;;;8.50;5.97;;;37.20;87.80;;;;;;5023673;28;20045;-87
2023/06/27 08:26:19;;;;;;;6.28;5.68;;;37.00;90.40;;;;;;5028072;28;20036;-82
2023/06/27 08:29:24;;;;;;;6.63;5.85;;;37.70;87.70;;;;;;5046660;28;20079;-82
2023/06/27 08:32:27;;;;;;;11.50;5.57;;;37.40;87.40;;;;;;5039191;28;20045;-83
2023/06/27 08:35:34;;;;;;;7.18;5.63;;;37.60;88.70;;;;;;5023206;28;20040;-82
2023/06/27 08:38:38;;;;;;;9.57;4.97;;;39.20;84.00;;;;;;5026382;28;20053;-80
2023/06/27 08:41:42;;;;;;;5.60;5.03;;;40.40;81.90;;;;;;5025774;28;20044;-82
2023/06/27 08:44:46;;;;;;;9.27;5.40;;;40.20;79.90;;;;;;5031739;28;20040;-78
2023/06/27 08:47:50;;;;;;;8.98;5.28;;;38.50;81.10;;;;;;5021217;28;20053;-82
2023/06/27 08:50:57;;;;;;;7.20;5.40;;;39.30;81.80;;;;;;5012655;28;20053;-80
2023/06/27 08:54:14;;;;;;;9.52;4.78;;;40.00;80.00;;;;;;5029219;28;20060;-82
2023/06/27 08:57:21;;;;;;;7.22;5.53;;;39.30;80.90;;;;;;5029764;28;20044;-84
2023/06/27 09:00:26;;;;;;;6.90;5.00;;;39.50;82.30;;;;;;5021660;28;20372;-82
2023/06/27 09:03:31;;;;;;;8.60;5.30;;;41.30;79.70;;;;;;5019333;28;20036;-82
2023/06/27 09:06:35;;;;;;;8.75;6.00;;;41.50;78.80;;;;;;5031053;28;20052;-83
2023/06/27 09:09:40;;;;;;;10.75;5.28;;;39.90;78.70;;;;;;5031327;28;20064;-82
2023/06/27 09:12:45;;;;;;;8.85;5.03;;;40.50;81.00;;;;;;5030071;28;20052;-81
2023/06/27 09:15:50;;;;;;;7.93;5.03;;;41.80;79.70;;;;;;5024637;28;20052;-82
2023/06/27 09:18:54;;;;;;;7.05;5.05;;;43.30;77.40;;;;;;5030263;28;20064;-81
2023/06/27 09:21:58;;;;;;;11.80;8.18;;;44.40;76.80;;;;;;5029238;28;20052;-81
2023/06/27 09:25:12;;;;;;;10.30;7.63;;;44.30;77.70;;;;;;5031503;28;20048;-82
2023/06/27 09:28:17;;;;;;;8.90;6.63;;;41.20;77.40;;;;;;5031236;28;20048;-82
2023/06/27 09:31:21;;;;;;;7.90;6.10;;;40.00;79.70;;;;;;5026745;28;20041;-83
2023/06/27 09:34:27;;;;;;;7.70;6.63;;;41.40;79.90;;;;;;5025041;28;20392;-81
2023/06/27 09:37:32;;;;;;;10.32;6.18;;;43.30;78.30;;;;;;5029431;28;20036;-82
2023/06/27 09:40:36;;;;;;;8.05;5.50;;;42.00;77.80;;;;;;5031110;28;20060;-82
2023/06/27 09:43:40;;;;;;;7.22;5.50;;;40.80;76.20;;;;;;5030849;28;20040;-82
2023/06/27 09:46:47;;;;;;;6.95;4.90;;;39.80;77.70;;;;;;5023047;28;20072;-80
2023/06/27 09:49:52;;;;;;;7.10;4.85;;;42.40;77.60;;;;;;5022494;28;20047;-82
2023/06/27 09:52:59;;;;;;;5.38;4.82;;;42.60;74.30;;;;;;5025159;28;20045;-82
2023/06/27 09:56:03;;;;;;;6.55;5.05;;;44.00;74.70;;;;;;5027893;28;20045;-85
2023/06/27 09:59:11;;;;;;;7.03;5.20;;;45.20;72.90;;;;;;5019326;28;20049;-84
2023/06/27 10:02:15;;;;;;;6.05;5.00;;;44.80;73.30;;;;;;5018099;28;20028;-85
2023/06/27 10:05:21;;;;;;;5.10;4.38;;;46.00;73.90;;;;;;5010949;28;20052;-80
2023/06/27 10:08:27;;;;;;;7.55;4.38;;;47.30;71.70;;;;;;5010569;28;20041;-82
2023/06/27 10:11:31;;;;;;;7.55;4.97;;;44.40;69.30;;;;;;5017723;28;20704;-83
2023/06/27 10:14:36;;;;;;;6.00;4.32;;;45.80;71.40;;;;;;5025867;28;20045;-82
2023/06/27 10:17:40;;;;;;;5.20;4.70;;;45.20;70.90;;;;;;5023105;28;20411;-82
2023/06/27 10:20:45;;;;;;;11.52;5.30;;;46.00;70.70;;;;;;5046745;28;20044;-83
2023/06/27 10:23:52;;;;;;;5.85;4.38;;;44.40;71.10;;;;;;5026971;28;20037;-81
2023/06/27 10:26:57;;;;;;;6.78;4.47;;;46.10;67.90;;;;;;5020052;28;20633;-83
2023/06/27 10:30:20;;;;;;;4.75;4.03;;;46.30;68.30;;;;;;5031794;28;20052;-82
2023/06/27 10:33:28;;;;;;;5.38;4.20;;;42.50;66.80;;;;;;5031872;28;20044;-81
2023/06/27 10:36:56;;;;;;;10.05;4.60;;;41.80;71.20;;;;;;5022874;28;20048;-81
2023/06/27 10:40:01;;;;;;;6.45;4.10;;;42.30;70.80;;;;;;5030604;28;20495;-82
2023/06/27 10:43:05;;;;;;;6.07;5.47;;;44.30;69.60;;;;;;5027131;28;20048;-82
2023/06/27 10:46:21;;;;;;;4.97;4.45;;;44.80;69.90;;;;;;5030786;28;20400;-82
2023/06/27 10:49:35;;;;;;;5.97;4.18;;;43.60;68.70;;;;;;5022111;28;20048;-84
2023/06/27 10:52:57;;;;;;;6.38;4.35;;;43.80;66.60;;;;;;5025591;28;20040;-81
2023/06/27 10:56:28;;;;;;;4.32;3.92;;;43.60;68.20;;;;;;5035173;28;20049;-80
2023/06/27 10:59:34;;;;;;;5.60;4.97;;;43.50;68.80;;;;;;5028217;28;20044;-80
2023/06/27 11:02:45;;;;;;;8.20;4.72;;;41.80;68.90;;;;;;5031544;28;20045;-79
2023/06/27 11:05:53;;;;;;;8.75;4.75;;;41.70;70.30;;;;;;5026366;28;20385;-81
2023/06/27 11:08:57;;;;;;;6.53;4.88;;;42.60;70.20;;;;;;5021190;28;20032;-81
2023/06/27 11:12:14;;;;;;;5.80;4.50;;;41.60;68.60;;;;;;5022174;28;20059;-80
2023/06/27 11:15:19;;;;;;;7.75;4.70;;;43.30;68.50;;;;;;5030144;28;20044;-81
2023/06/27 11:18:26;;;;;;;5.50;4.60;;;44.10;67.00;;;;;;5027816;28;20044;-81
2023/06/27 11:21:31;;;;;;;6.18;4.65;;;43.30;66.90;;;;;;5023448;28;20043;-81
2023/06/27 11:24:35;;;;;;;6.50;4.05;;;43.40;67.60;;;;;;5018191;28;20392;-81
2023/06/27 11:27:39;;;;;;;6.82;4.38;;;44.00;68.70;;;;;;5027781;28;20499;-80
2023/06/27 11:30:44;;;;;;;4.90;4.22;;;43.20;66.70;;;;;;5027315;28;20045;-81
2023/06/27 11:33:56;;;;;;;7.45;4.47;;;42.90;67.70;;;;;;5032655;28;20389;-81
2023/06/27 11:37:00;;;;;;;4.70;4.25;;;43.60;68.70;;;;;;5021576;28;20045;-81
2023/06/27 11:40:07;;;;;;;8.05;4.88;;;41.50;66.70;;;;;;5025483;28;20048;-79
2023/06/27 11:43:11;;;;;;;9.25;4.70;;;38.40;70.70;;;;;;5031547;28;20392;-80
2023/06/27 11:46:19;;;;;;;6.63;4.75;;;39.50;71.00;;;;;;5032219;28;20605;-81
2023/06/27 11:49:24;;;;;;;6.28;4.50;;;41.30;71.10;;;;;;5030490;28;20052;-80
2023/06/27 11:52:29;;;;;;;6.45;4.78;;;42.30;68.30;;;;;;5025386;28;20045;-80
2023/06/27 11:55:41;;;;;;;9.05;5.10;;;41.50;68.10;;;;;;5021265;28;20052;-81
2023/06/27 11:58:50;;;;;;;5.18;4.60;;;40.80;69.00;;;;;;5040170;28;20040;-80
2023/06/27 12:01:58;;;;;;;6.78;5.10;;;39.60;72.90;;;;;;5026046;28;20044;-80
2023/06/27 12:05:03;;;;;;;6.20;5.10;;;40.10;71.50;;;;;;5024575;28;20041;-80
2023/06/27 12:08:08;;;;;;;6.25;4.95;;;40.40;70.80;;;;;;5030168;28;20036;-80
2023/06/27 12:11:12;;;;;;;6.75;5.10;;;39.60;70.80;;;;;;5036779;28;20041;-80
2023/06/27 12:14:22;;;;;;;5.72;4.43;;;40.20;72.40;;;;;;5040576;28;20057;-80
2023/06/27 12:17:26;;;;;;;6.38;5.03;;;39.80;71.10;;;;;;5027853;28;20064;-79
2023/06/27 12:20:44;;;;;;;7.53;4.80;;;39.00;72.70;;;;;;5014918;28;20057;-80
2023/06/27 12:23:48;;;;;;;9.82;5.55;;;39.40;74.00;;;;;;5022250;28;20040;-82
2023/06/27 12:26:53;;;;;;;9.68;5.10;;;38.50;72.60;;;;;;5024971;28;20044;-80
2023/06/27 12:29:57;;;;;;;7.00;5.00;;;38.80;72.80;;;;;;5027916;28;20056;-80
2023/06/27 12:33:01;;;;;;;8.73;5.13;;;40.00;70.60;;;;;;5028635;28;20048;-81
2023/06/27 12:36:05;;;;;;;13.25;4.82;;;39.80;72.00;;;;;;5015666;28;20049;-80
2023/06/27 12:39:09;;;;;;;8.07;5.07;;;39.70;70.90;;;;;;5029955;28;20512;-80
2023/06/27 12:42:13;;;;;;;7.07;5.22;;;39.30;71.90;;;;;;5029858;28;20387;-79
2023/06/27 12:45:18;;;;;;;8.82;5.78;;;36.40;73.70;;;;;;5028987;28;20476;-78
2023/06/27 12:48:22;;;;;;;8.30;4.93;;;36.80;74.10;;;;;;5011431;28;20393;-80
2023/06/27 12:51:26;;;;;;;6.38;5.18;;;37.40;72.40;;;;;;5023212;28;20065;-78
2023/06/27 12:54:31;;;;;;;7.18;5.13;;;37.80;74.70;;;;;;5022411;28;20052;-79
2023/06/27 12:57:35;;;;;;;6.80;5.18;;;38.10;76.30;;;;;;5023732;28;20515;-81
2023/06/27 13:00:41;;;;;;;13.60;6.15;;;37.50;76.20;;;;;;5018867;28;20040;-79
2023/06/27 13:03:45;;;;;;;8.52;5.50;;;36.00;74.50;;;;;;5025897;28;20064;-81
2023/06/27 13:06:49;;;;;;;9.23;5.22;;;36.20;73.60;;;;;;5023969;28;20048;-78
2023/06/27 13:09:56;;;;;;;9.57;4.90;;;36.00;75.60;;;;;;5025882;28;20048;-79
2023/06/27 13:13:01;;;;;;;9.00;5.43;;;36.00;75.90;;;;;;5041964;28;20048;-79
2023/06/27 13:16:05;;;;;;;8.60;5.20;;;35.70;75.50;;;;;;5029920;28;20042;-78
2023/06/27 13:19:10;;;;;;;5.60;4.88;;;34.30;75.10;;;;;;5022822;28;20052;-81
2023/06/27 13:22:14;;;;;;;6.90;5.15;;;34.30;77.10;;;;;;5026345;28;20052;-79
2023/06/27 13:25:18;;;;;;;7.15;5.00;;;35.60;72.40;;;;;;5022414;28;20044;-78
2023/06/27 13:28:22;;;;;;;6.03;4.47;;;35.00;73.70;;;;;;5009293;28;20051;-79
2023/06/27 13:31:27;;;;;;;7.90;4.60;;;35.90;71.60;;;;;;5019102;28;20048;-79
2023/06/27 13:34:31;;;;;;;9.18;4.22;;;35.90;73.80;;;;;;5024122;28;20041;-78
2023/06/27 13:37:35;;;;;;;7.20;4.85;;;35.00;72.20;;;;;;5024046;28;20514;-79
2023/06/27 13:40:39;;;;;;;8.48;5.07;;;34.70;77.90;;;;;;5017035;28;20412;-79
2023/06/27 13:43:43;;;;;;;9.70;5.45;;;34.30;76.20;;;;;;5015628;28;20061;-78
2023/06/27 13:46:47;;;;;;;7.10;4.93;;;34.20;76.10;;;;;;5029634;28;20502;-80
2023/06/27 13:49:51;;;;;;;9.90;5.80;;;34.20;74.40;;;;;;5025987;28;20041;-79
2023/06/27 13:52:56;;;;;;;6.20;4.60;;;34.20;75.00;;;;;;5027297;28;20044;-78
2023/06/27 13:56:00;;;;;;;9.35;4.90;;;34.60;73.00;;;;;;5031207;28;20503;-78
2023/06/27 13:59:05;;;;;;;5.72;4.82;;;33.70;73.90;;;;;;5034478;28;20044;-79
2023/06/27 14:02:08;;;;;;;6.85;4.53;;;34.20;75.70;;;;;;5034301;28;20407;-81
2023/06/27 14:05:33;;;;;;;5.82;4.30;;;34.20;75.90;;;;;;5033074;28;20053;-79
2023/06/27 14:08:37;;;;;;;6.05;5.10;;;34.50;74.30;;;;;;5035063;28;20396;-79
2023/06/27 14:11:41;;;;;;;5.32;4.75;;;35.10;74.30;;;;;;5034873;28;20048;-81
2023/06/27 14:14:45;;;;;;;10.15;5.07;;;35.00;74.00;;;;;;5034819;28;20056;-81
2023/06/27 14:17:49;;;;;;;7.32;5.10;;;34.90;77.20;;;;;;5003286;28;20045;-81
2023/06/27 14:20:53;;;;;;;10.18;5.13;;;33.80;77.60;;;;;;5029094;28;20048;-81
2023/06/27 14:23:59;;;;;;;8.45;4.85;;;33.80;74.60;;;;;;5031126;28;20044;-81
2023/06/27 14:27:03;;;;;;;7.88;5.47;;;34.40;76.40;;;;;;5033602;28;20041;-79
2023/06/27 14:30:07;;;;;;;6.45;4.97;;;33.90;75.60;;;;;;5033404;28;20036;-79
2023/06/27 14:33:14;;;;;;;11.02;5.70;;;34.00;77.70;;;;;;5034409;28;20048;-82
2023/06/27 14:36:19;;;;;;;9.88;5.88;;;34.20;80.60;;;;;;5035018;28;20044;-84
2023/06/27 14:39:23;;;;;;;8.93;6.15;;;33.90;81.90;;;;;;5034635;28;20411;-85
2023/06/27 14:42:28;;;;;;;10.65;5.88;;;33.70;82.20;;;;;;5033634;28;20048;-80
2023/06/27 14:45:32;;;;;;;7.93;5.65;;;33.40;82.50;;;;;;5032562;28;20052;-80
2023/06/27 14:48:36;;;;;;;9.85;5.82;;;33.10;82.30;;;;;;5026484;28;20040;-82
2023/06/27 14:51:40;;;;;;;10.35;6.15;;;33.50;80.80;;;;;;5028509;28;20200;-80
2023/06/27 14:54:44;;;;;;;9.95;5.93;;;33.90;83.00;;;;;;5027536;28;20053;-80
2023/06/27 14:57:48;;;;;;;6.85;5.88;;;34.40;82.20;;;;;;5032661;28;20041;-85
2023/06/27 15:00:52;;;;;;;9.02;5.45;;;33.70;80.10;;;;;;5020595;28;20412;-82
2023/06/27 15:03:56;;;;;;;9.13;5.63;;;33.70;81.80;;;;;;5035023;28;20121;-82
2023/06/27 15:07:00;;;;;;;7.43;5.68;;;33.80;83.50;;;;;;5034330;28;20052;-82
2023/06/27 15:10:05;;;;;;;6.63;5.32;;;33.90;83.50;;;;;;5033930;28;20048;-82
2023/06/27 15:13:09;;;;;;;10.35;6.32;;;33.90;82.40;;;;;;5032330;28;20056;-82
2023/06/27 15:16:14;;;;;;;7.25;5.35;;;34.40;82.00;;;;;;5031692;28;20388;-80
2023/06/27 15:19:18;;;;;;;7.95;5.63;;;34.50;83.60;;;;;;5029970;28;20500;-81
2023/06/27 15:22:24;;;;;;;8.88;5.28;;;33.80;82.40;;;;;;5013172;28;20045;-83
2023/06/27 15:25:28;;;;;;;9.30;5.80;;;34.20;84.00;;;;;;5014002;28;20081;-82
2023/06/27 15:28:32;;;;;;;6.38;5.47;;;34.50;85.30;;;;;;5014245;28;20053;-84
2023/06/27 15:31:36;;;;;;;8.10;5.43;;;34.10;82.40;;;;;;5015004;28;20408;-82
2023/06/27 15:34:42;;;;;;;10.48;5.70;;;34.10;83.80;;;;;;5013731;28;20045;-81
2023/06/27 15:37:46;;;;;;;10.40;5.97;;;34.10;82.70;;;;;;5013626;28;20125;-84
2023/06/27 15:40:50;;;;;;;7.15;5.68;;;33.50;82.70;;;;;;5013547;28;20045;-82
2023/06/27 15:43:54;;;;;;;6.03;5.40;;;33.50;83.90;;;;;;5013178;28;20041;-84
2023/06/27 15:46:58;;;;;;;11.00;5.45;;;33.60;84.50;;;;;;5012522;28;20048;-84
2023/06/27 15:50:04;;;;;;;6.95;5.82;;;33.50;84.40;;;;;;5013602;28;20052;-83
2023/06/27 15:53:08;;;;;;;8.73;6.50;;;33.60;85.10;;;;;;5013379;28;20057;-83
2023/06/27 15:56:12;;;;;;;11.55;6.00;;;33.90;83.10;;;;;;5013254;28;20049;-81